createdAt,value
2019-01-21T00:00:26.447Z,0
2019-01-21T00:01:27.839Z,0
2019-01-21T00:02:29.332Z,0
2019-01-21T00:03:30.724Z,0
2019-01-21T00:04:32.210Z,0
2019-01-21T00:05:33.981Z,0
2019-01-21T00:06:35.889Z,0
2019-01-21T00:07:37.281Z,0
2019-01-21T00:08:38.675Z,0
2019-01-21T00:09:40.230Z,0
2019-01-21T00:10:41.633Z,0
2019-01-21T00:11:43.023Z,0
2019-01-21T00:12:44.557Z,0
2019-01-21T00:13:45.945Z,0
2019-01-21T00:14:47.334Z,0
2019-01-21T00:15:49.338Z,0
2019-01-21T00:16:50.616Z,0
2019-01-21T00:17:52.570Z,0
2019-01-21T00:18:53.966Z,0
2019-01-21T00:19:55.352Z,0
2019-01-21T00:20:56.905Z,0
2019-01-21T00:21:58.301Z,0
2019-01-21T00:22:59.703Z,0
2019-01-21T00:24:01.219Z,0
2019-01-21T00:25:02.618Z,0
2019-01-21T00:26:04.014Z,0
2019-01-21T00:27:05.538Z,0
2019-01-21T00:28:07.330Z,0
2019-01-21T00:29:09.115Z,0
2019-01-21T00:30:11.077Z,0
2019-01-21T00:31:12.470Z,0
2019-01-21T00:32:13.866Z,0
2019-01-21T00:33:15.412Z,0
2019-01-21T00:34:17.604Z,0
2019-01-21T00:35:19.109Z,0
2019-01-21T00:36:20.500Z,0
2019-01-21T00:37:22.337Z,0
2019-01-21T00:38:23.743Z,0
2019-01-21T00:39:25.245Z,0
2019-01-21T00:40:26.722Z,0
2019-01-21T00:41:28.121Z,0
2019-01-21T00:42:29.512Z,0
2019-01-21T00:43:31.044Z,0
2019-01-21T00:44:32.435Z,0
2019-01-21T00:45:34.321Z,0
2019-01-21T00:46:36.047Z,0
2019-01-21T00:47:37.625Z,0
2019-01-21T00:48:39.026Z,0
2019-01-21T00:49:40.420Z,0
2019-01-21T00:50:41.942Z,0
2019-01-21T00:51:43.788Z,0
2019-01-21T00:52:45.184Z,0
2019-01-21T00:53:46.673Z,0
2019-01-21T00:54:48.066Z,0
2019-01-21T00:55:49.556Z,0
2019-01-21T00:56:50.948Z,0
2019-01-21T00:57:52.437Z,0
2019-01-21T00:58:53.832Z,0
2019-01-21T00:59:55.227Z,0
2019-01-21T01:00:56.764Z,0
2019-01-21T01:01:58.149Z,0
2019-01-21T01:02:59.541Z,0
2019-01-21T01:04:01.092Z,0
2019-01-21T01:05:02.886Z,0
2019-01-21T01:06:04.367Z,0
2019-01-21T01:07:05.759Z,0
2019-01-21T01:08:07.256Z,0
2019-01-21T01:09:08.648Z,0
2019-01-21T01:10:10.850Z,0
2019-01-21T01:11:12.390Z,0
2019-01-21T01:12:13.785Z,0
2019-01-21T01:13:15.192Z,0
2019-01-21T01:14:16.713Z,0
2019-01-21T01:15:18.487Z,0
2019-01-21T01:16:20.010Z,0
2019-01-21T01:17:21.396Z,0
2019-01-21T01:18:22.887Z,0
2019-01-21T01:19:24.671Z,0
2019-01-21T01:20:26.471Z,0
2019-01-21T01:21:28.023Z,0
2019-01-21T01:22:29.418Z,0
2019-01-21T01:23:30.812Z,0
2019-01-21T01:24:32.347Z,0
2019-01-21T01:25:33.735Z,0
2019-01-21T01:26:35.129Z,0
2019-01-21T01:27:36.665Z,0
2019-01-21T01:28:38.441Z,0
2019-01-21T01:29:39.857Z,0
2019-01-21T01:30:41.402Z,0
2019-01-21T01:31:42.793Z,0
2019-01-21T01:32:44.278Z,0
2019-01-21T01:33:45.722Z,0
2019-01-21T01:34:47.538Z,0
2019-01-21T01:35:48.930Z,0
2019-01-21T01:36:50.451Z,0
2019-01-21T01:37:51.845Z,0
2019-01-21T01:38:53.340Z,0
2019-01-21T01:39:54.721Z,0
2019-01-21T01:40:56.212Z,0
2019-01-21T01:41:57.642Z,0
2019-01-21T01:42:59.095Z,0
2019-01-21T01:44:00.488Z,0
2019-01-21T01:45:01.976Z,0
2019-01-21T01:46:03.365Z,0
2019-01-21T01:47:04.858Z,0
2019-01-21T01:48:06.256Z,0
2019-01-21T01:49:07.782Z,0
2019-01-21T01:50:09.136Z,0
2019-01-21T01:51:10.530Z,0
2019-01-21T01:52:12.060Z,0
2019-01-21T01:53:13.415Z,0
2019-01-21T01:54:14.810Z,0
2019-01-21T01:55:16.382Z,0
2019-01-21T01:56:17.775Z,0
2019-01-21T01:57:19.165Z,0
2019-01-21T01:58:20.704Z,0
2019-01-21T01:59:22.098Z,0
2019-01-21T02:00:23.490Z,0
2019-01-21T02:01:25.025Z,0
2019-01-21T02:02:26.416Z,0
2019-01-21T02:03:27.810Z,0
2019-01-21T02:04:29.347Z,0
2019-01-21T02:05:30.739Z,0
2019-01-21T02:06:32.223Z,0
2019-01-21T02:07:33.616Z,0
2019-01-21T02:08:35.104Z,0
2019-01-21T02:09:36.496Z,0
2019-01-21T02:10:37.985Z,0
2019-01-21T02:11:39.386Z,0
2019-01-21T02:12:40.868Z,0
2019-01-21T02:13:42.259Z,0
2019-01-21T02:14:43.753Z,0
2019-01-21T02:15:45.142Z,0
2019-01-21T02:16:46.630Z,0
2019-01-21T02:17:52.015Z,0
2019-01-21T02:18:49.513Z,0
2019-01-21T02:19:50.903Z,0
2019-01-21T02:20:52.393Z,0
2019-01-21T02:21:53.781Z,0
2019-01-21T02:22:55.274Z,0
2019-01-21T02:23:56.663Z,0
2019-01-21T02:24:58.047Z,0
2019-01-21T02:25:59.592Z,0
2019-01-21T02:27:00.985Z,0
2019-01-21T02:28:02.371Z,0
2019-01-21T02:29:03.916Z,0
2019-01-21T02:30:05.309Z,0
2019-01-21T02:31:06.700Z,0
2019-01-21T02:32:08.235Z,0
2019-01-21T02:33:09.629Z,0
2019-01-21T02:34:11.026Z,0
2019-01-21T02:35:12.556Z,0
2019-01-21T02:36:13.913Z,0
2019-01-21T02:37:15.436Z,0
2019-01-21T02:38:16.834Z,0
2019-01-21T02:39:18.318Z,0
2019-01-21T02:40:19.715Z,0
2019-01-21T02:41:21.211Z,0
2019-01-21T02:42:22.602Z,0
2019-01-21T02:43:24.103Z,0
2019-01-21T02:44:25.496Z,0
2019-01-21T02:45:26.960Z,0
2019-01-21T02:46:28.359Z,0
2019-01-21T02:47:29.841Z,0
2019-01-21T02:48:31.234Z,0
2019-01-21T02:49:32.723Z,0
2019-01-21T02:50:34.112Z,0
2019-01-21T02:51:35.891Z,0
2019-01-21T02:52:37.452Z,0
2019-01-21T02:53:38.845Z,0
2019-01-21T02:54:40.236Z,0
2019-01-21T02:55:41.776Z,0
2019-01-21T02:56:43.167Z,0
2019-01-21T02:57:44.528Z,0
2019-01-21T02:58:46.096Z,0
2019-01-21T02:59:47.493Z,0
2019-01-21T03:00:48.884Z,0
2019-01-21T03:01:50.485Z,0
2019-01-21T03:02:52.219Z,0
2019-01-21T03:03:53.708Z,0
2019-01-21T03:04:55.101Z,0
2019-01-21T03:05:56.588Z,0
2019-01-21T03:06:57.980Z,0
2019-01-21T03:07:59.479Z,0
2019-01-21T03:09:00.870Z,0
2019-01-21T03:10:02.353Z,0
2019-01-21T03:11:03.744Z,0
2019-01-21T03:12:05.515Z,0
2019-01-21T03:13:07.090Z,0
2019-01-21T03:14:08.482Z,0
2019-01-21T03:15:09.872Z,0
2019-01-21T03:16:11.403Z,0
2019-01-21T03:17:12.794Z,0
2019-01-21T03:18:14.187Z,0
2019-01-21T03:19:15.725Z,0
2019-01-21T03:20:17.110Z,0
2019-01-21T03:21:18.457Z,0
2019-01-21T03:22:20.429Z,0
2019-01-21T03:23:21.831Z,0
2019-01-21T03:24:23.223Z,0
2019-01-21T03:25:24.777Z,0
2019-01-21T03:26:26.171Z,0
2019-01-21T03:27:27.559Z,0
2019-01-21T03:28:29.201Z,0
2019-01-21T03:29:30.556Z,0
2019-01-21T03:30:31.949Z,0
2019-01-21T03:31:33.421Z,0
2019-01-21T03:32:34.817Z,0
2019-01-21T03:33:36.301Z,0
2019-01-21T03:34:37.697Z,0
2019-01-21T03:35:39.187Z,0
2019-01-21T03:36:40.608Z,0
2019-01-21T03:37:42.064Z,0
2019-01-21T03:38:43.457Z,0
2019-01-21T03:39:44.942Z,0
2019-01-21T03:40:46.297Z,0
2019-01-21T03:41:47.689Z,0
2019-01-21T03:42:49.280Z,0
2019-01-21T03:43:50.675Z,0
2019-01-21T03:44:52.071Z,0
2019-01-21T03:45:53.580Z,0
2019-01-21T03:46:55.004Z,0
2019-01-21T03:47:56.856Z,0
2019-01-21T03:48:58.628Z,0
2019-01-21T03:50:00.323Z,0
2019-01-21T03:51:01.521Z,0
2019-01-21T03:52:03.048Z,0
2019-01-21T03:53:04.439Z,0
2019-01-21T03:54:05.930Z,0
2019-01-21T03:55:07.317Z,0
2019-01-21T03:56:08.810Z,0
2019-01-21T03:57:10.200Z,0
2019-01-21T03:58:11.689Z,0
2019-01-21T03:59:13.083Z,0
2019-01-21T04:00:14.574Z,0
2019-01-21T04:01:15.965Z,0
2019-01-21T04:02:17.336Z,0
2019-01-21T04:03:19.272Z,0
2019-01-21T04:04:20.658Z,0
2019-01-21T04:05:22.074Z,0
2019-01-21T04:06:23.623Z,0
2019-01-21T04:07:25.017Z,0
2019-01-21T04:08:26.506Z,0
2019-01-21T04:09:27.895Z,0
2019-01-21T04:10:29.383Z,0
2019-01-21T04:11:30.777Z,0
2019-01-21T04:12:32.132Z,0
2019-01-21T04:13:33.704Z,0
2019-01-21T04:14:35.099Z,0
2019-01-21T04:15:36.494Z,0
2019-01-21T04:16:38.029Z,0
2019-01-21T04:17:39.419Z,0
2019-01-21T04:18:40.819Z,0
2019-01-21T04:19:42.209Z,0
2019-01-21T04:20:43.603Z,0
2019-01-21T04:21:45.025Z,0
2019-01-21T04:22:46.375Z,0
2019-01-21T04:23:47.776Z,0
2019-01-21T04:24:49.346Z,0
2019-01-21T04:25:50.747Z,0
2019-01-21T04:26:52.140Z,0
2019-01-21T04:27:53.711Z,0
2019-01-21T04:28:55.094Z,0
2019-01-21T04:29:56.552Z,0
2019-01-21T04:30:57.948Z,0
2019-01-21T04:31:59.430Z,0
2019-01-21T04:33:00.824Z,0
2019-01-21T04:34:02.310Z,0
2019-01-21T04:35:03.704Z,0
2019-01-21T04:36:05.191Z,0
2019-01-21T04:37:06.586Z,0
2019-01-21T04:38:07.975Z,0
2019-01-21T04:39:09.510Z,0
2019-01-21T04:40:10.903Z,0
2019-01-21T04:41:12.294Z,0
2019-01-21T04:42:13.831Z,0
2019-01-21T04:43:15.233Z,0
2019-01-21T04:44:16.586Z,0
2019-01-21T04:45:18.158Z,0
2019-01-21T04:46:19.547Z,0
2019-01-21T04:47:20.941Z,0
2019-01-21T04:48:22.474Z,0
2019-01-21T04:49:23.868Z,0
2019-01-21T04:50:25.357Z,0
2019-01-21T04:51:26.828Z,0
2019-01-21T04:52:28.227Z,0
2019-01-21T04:53:29.676Z,0
2019-01-21T04:54:31.035Z,0
2019-01-21T04:55:32.424Z,0
2019-01-21T04:56:34.103Z,0
2019-01-21T04:57:35.497Z,0
2019-01-21T04:58:37.079Z,0
2019-01-21T04:59:38.478Z,0
2019-01-21T05:00:39.973Z,0
2019-01-21T05:01:41.364Z,0
2019-01-21T05:02:42.756Z,0
2019-01-21T05:03:44.289Z,0
2019-01-21T05:04:45.681Z,0
2019-01-21T05:05:47.073Z,0
2019-01-21T05:06:48.608Z,0
2019-01-21T05:07:50.000Z,0
2019-01-21T05:08:51.393Z,0
2019-01-21T05:09:52.929Z,0
2019-01-21T05:10:54.321Z,0
2019-01-21T05:11:55.717Z,0
2019-01-21T05:12:57.250Z,0
2019-01-21T05:13:58.937Z,0
2019-01-21T05:15:00.338Z,0
2019-01-21T05:16:01.726Z,0
2019-01-21T05:17:03.218Z,0
2019-01-21T05:18:04.613Z,0
2019-01-21T05:19:06.009Z,0
2019-01-21T05:20:09.334Z,0
2019-01-21T05:21:09.005Z,0
2019-01-21T05:22:10.403Z,0
2019-01-21T05:23:11.964Z,0
2019-01-21T05:24:13.355Z,0
2019-01-21T05:25:14.747Z,0
2019-01-21T05:26:16.288Z,0
2019-01-21T05:27:18.062Z,0
2019-01-21T05:28:19.745Z,0
2019-01-21T05:29:21.428Z,0
2019-01-21T05:30:22.805Z,0
2019-01-21T05:31:24.306Z,0
2019-01-21T05:32:25.698Z,0
2019-01-21T05:33:27.088Z,0
2019-01-21T05:34:28.626Z,0
2019-01-21T05:35:30.018Z,0
2019-01-21T05:36:31.371Z,0
2019-01-21T05:37:32.946Z,0
2019-01-21T05:38:34.350Z,0
2019-01-21T05:39:35.737Z,0
2019-01-21T05:40:37.271Z,0
2019-01-21T05:41:38.664Z,0
2019-01-21T05:42:40.058Z,0
2019-01-21T05:43:41.591Z,0
2019-01-21T05:44:42.985Z,0
2019-01-21T05:45:44.683Z,0
2019-01-21T05:46:46.068Z,0
2019-01-21T05:47:47.762Z,0
2019-01-21T05:48:49.546Z,0
2019-01-21T05:49:51.324Z,0
2019-01-21T05:50:53.283Z,0
2019-01-21T05:51:54.676Z,0
2019-01-21T05:52:56.081Z,0
2019-01-21T05:53:57.634Z,0
2019-01-21T05:54:59.029Z,0
2019-01-21T05:56:00.719Z,0
2019-01-21T05:57:02.110Z,0
2019-01-21T05:58:03.504Z,0
2019-01-21T05:59:05.045Z,0
2019-01-21T06:00:06.432Z,0
2019-01-21T06:01:07.824Z,0
2019-01-21T06:02:09.369Z,0
2019-01-21T06:03:10.754Z,0
2019-01-21T06:04:12.527Z,0
2019-01-21T06:05:14.093Z,0
2019-01-21T06:06:15.483Z,0
2019-01-21T06:07:16.876Z,0
2019-01-21T06:08:18.413Z,0
2019-01-21T06:09:19.809Z,0
2019-01-21T06:10:21.499Z,0
2019-01-21T06:11:23.613Z,0
2019-01-21T06:12:25.202Z,0
2019-01-21T06:13:26.592Z,0
2019-01-21T06:14:28.288Z,0
2019-01-21T06:15:29.680Z,0
2019-01-21T06:16:31.443Z,0
2019-01-21T06:17:32.774Z,0
2019-01-21T06:18:34.168Z,0
2019-01-21T06:19:35.700Z,0
2019-01-21T06:20:37.086Z,0
2019-01-21T06:21:38.491Z,0
2019-01-21T06:22:40.400Z,0
2019-01-21T06:23:41.795Z,0
2019-01-21T06:24:43.514Z,0
2019-01-21T06:25:44.904Z,0
2019-01-21T06:26:46.980Z,0
2019-01-21T06:27:48.372Z,0
2019-01-21T06:28:49.891Z,0
2019-01-21T06:29:51.281Z,0
2019-01-21T06:30:52.982Z,0
2019-01-21T06:31:54.758Z,0
2019-01-21T06:32:56.476Z,0
2019-01-21T06:33:57.860Z,0
2019-01-21T06:34:59.941Z,0
2019-01-21T06:36:01.334Z,0
2019-01-21T06:37:03.049Z,0
2019-01-21T06:38:04.440Z,0
2019-01-21T06:39:05.834Z,0
2019-01-21T06:40:07.374Z,0
2019-01-21T06:41:08.767Z,0
2019-01-21T06:42:10.926Z,0
2019-01-21T06:43:12.517Z,0
2019-01-21T06:44:13.906Z,0
2019-01-21T06:45:15.301Z,0
2019-01-21T06:46:17.228Z,0
2019-01-21T06:47:18.633Z,0
2019-01-21T06:48:20.013Z,0
2019-01-21T06:49:21.565Z,0
2019-01-21T06:50:22.958Z,0
2019-01-21T06:51:24.735Z,0
2019-01-21T06:52:26.296Z,0
2019-01-21T06:53:27.689Z,0
2019-01-21T06:54:29.085Z,0
2019-01-21T06:55:30.620Z,0
2019-01-21T06:56:32.009Z,0
2019-01-21T06:57:33.402Z,0
2019-01-21T06:58:34.945Z,0
2019-01-21T06:59:36.345Z,0
2019-01-21T07:00:37.735Z,0
2019-01-21T07:01:39.257Z,0
2019-01-21T07:02:40.650Z,0
2019-01-21T07:03:42.038Z,0
2019-01-21T07:04:43.578Z,0
2019-01-21T07:05:44.995Z,0
2019-01-21T07:06:46.664Z,0
2019-01-21T07:07:48.056Z,0
2019-01-21T07:08:49.750Z,0
2019-01-21T07:09:51.140Z,0
2019-01-21T07:10:52.836Z,0
2019-01-21T07:11:54.228Z,0
2019-01-21T07:12:55.921Z,0
2019-01-21T07:13:57.316Z,0
2019-01-21T07:14:59.009Z,0
2019-01-21T07:16:00.401Z,0
2019-01-21T07:17:02.093Z,0
2019-01-21T07:18:03.486Z,0
2019-01-21T07:19:10.887Z,0
2019-01-21T07:20:06.541Z,0
2019-01-21T07:21:08.060Z,0
2019-01-21T07:22:09.457Z,0
2019-01-21T07:23:11.146Z,0
2019-01-21T07:24:12.537Z,0
2019-01-21T07:25:14.231Z,0
2019-01-21T07:26:15.624Z,0
2019-01-21T07:27:17.317Z,5
2019-01-21T07:28:18.731Z,5
2019-01-21T07:29:20.398Z,5
2019-01-21T07:30:21.795Z,5
2019-01-21T07:31:23.488Z,5
2019-01-21T07:32:24.881Z,5
2019-01-21T07:33:26.574Z,5
2019-01-21T07:34:27.969Z,5
2019-01-21T07:35:29.660Z,5
2019-01-21T07:36:31.056Z,5
2019-01-21T07:37:33.133Z,5
2019-01-21T07:38:34.905Z,5
2019-01-21T07:39:36.290Z,10
2019-01-21T07:40:37.914Z,10
2019-01-21T07:41:39.285Z,10
2019-01-21T07:42:40.679Z,10
2019-01-21T07:43:42.211Z,10
2019-01-21T07:44:43.616Z,10
2019-01-21T07:45:45.013Z,10
2019-01-21T07:46:46.531Z,10
2019-01-21T07:47:47.924Z,10
2019-01-21T07:48:49.708Z,10
2019-01-21T07:49:51.270Z,15
2019-01-21T07:50:52.666Z,15
2019-01-21T07:51:54.353Z,15
2019-01-21T07:52:55.749Z,15
2019-01-21T07:53:57.638Z,15
2019-01-21T07:54:59.039Z,15
2019-01-21T07:56:00.742Z,15
2019-01-21T07:57:02.138Z,15
2019-01-21T07:58:03.809Z,20
2019-01-21T07:59:05.205Z,20
2019-01-21T08:00:06.896Z,20
2019-01-21T08:01:08.285Z,20
2019-01-21T08:02:09.983Z,20
2019-01-21T08:03:11.377Z,20
2019-01-21T08:04:13.136Z,20
2019-01-21T08:05:14.537Z,25
2019-01-21T08:06:16.540Z,25
2019-01-21T08:07:17.932Z,25
2019-01-21T08:08:19.923Z,25
2019-01-21T08:09:21.698Z,25
2019-01-21T08:10:23.134Z,25
2019-01-21T08:11:24.786Z,25
2019-01-21T08:12:26.184Z,25
2019-01-21T08:13:27.590Z,25
2019-01-21T08:14:29.110Z,25
2019-01-21T08:15:30.507Z,25
2019-01-21T08:16:31.903Z,30
2019-01-21T08:17:33.639Z,30
2019-01-21T08:18:35.039Z,30
2019-01-21T08:19:36.439Z,30
2019-01-21T08:20:37.960Z,30
2019-01-21T08:21:39.359Z,30
2019-01-21T08:22:41.048Z,30
2019-01-21T08:23:42.830Z,30
2019-01-21T08:24:44.541Z,30
2019-01-21T08:25:45.941Z,30
2019-01-21T08:26:47.336Z,30
2019-01-21T08:27:48.863Z,30
2019-01-21T08:28:50.258Z,30
2019-01-21T08:29:51.661Z,30
2019-01-21T08:30:53.221Z,30
2019-01-21T08:31:54.620Z,30
2019-01-21T08:32:56.269Z,35
2019-01-21T08:33:57.668Z,35
2019-01-21T08:34:59.359Z,35
2019-01-21T08:36:00.759Z,35
2019-01-21T08:37:02.467Z,35
2019-01-21T08:38:03.871Z,35
2019-01-21T08:39:05.927Z,35
2019-01-21T08:40:07.328Z,35
2019-01-21T08:41:09.023Z,35
2019-01-21T08:42:10.419Z,35
2019-01-21T08:43:12.163Z,35
2019-01-21T08:44:13.559Z,35
2019-01-21T08:45:15.197Z,35
2019-01-21T08:46:16.605Z,35
2019-01-21T08:47:18.279Z,35
2019-01-21T08:48:19.689Z,35
2019-01-21T08:49:21.367Z,35
2019-01-21T08:50:22.764Z,35
2019-01-21T08:51:24.164Z,35
2019-01-21T08:52:25.685Z,35
2019-01-21T08:53:27.087Z,35
2019-01-21T08:54:28.483Z,35
2019-01-21T08:55:30.008Z,35
2019-01-21T08:56:31.401Z,35
2019-01-21T08:57:33.189Z,40
2019-01-21T08:58:34.738Z,40
2019-01-21T08:59:36.131Z,40
2019-01-21T09:00:37.542Z,40
2019-01-21T09:01:39.056Z,40
2019-01-21T09:02:40.457Z,40
2019-01-21T09:03:41.879Z,40
2019-01-21T09:04:43.585Z,40
2019-01-21T09:05:44.985Z,40
2019-01-21T09:06:46.671Z,40
2019-01-21T09:07:48.064Z,40
2019-01-21T09:08:50.138Z,40
2019-01-21T09:09:51.535Z,40
2019-01-21T09:10:52.939Z,40
2019-01-21T09:11:54.485Z,40
2019-01-21T09:12:55.879Z,40
2019-01-21T09:13:57.274Z,40
2019-01-21T09:14:58.806Z,40
2019-01-21T09:16:00.206Z,40
2019-01-21T09:17:01.599Z,40
2019-01-21T09:18:03.127Z,45
2019-01-21T09:19:04.525Z,45
2019-01-21T09:20:10.649Z,40
2019-01-21T09:21:07.449Z,40
2019-01-21T09:22:09.228Z,45
2019-01-21T09:23:11.105Z,45
2019-01-21T09:24:12.514Z,45
2019-01-21T09:25:14.032Z,45
2019-01-21T09:26:15.423Z,45
2019-01-21T09:27:17.127Z,45
2019-01-21T09:28:18.516Z,45
2019-01-21T09:29:20.201Z,45
2019-01-21T09:30:21.607Z,45
2019-01-21T09:31:23.316Z,45
2019-01-21T09:32:24.680Z,45
2019-01-21T09:33:26.372Z,50
2019-01-21T09:34:28.146Z,50
2019-01-21T09:35:29.665Z,50
2019-01-21T09:36:31.148Z,50
2019-01-21T09:37:32.857Z,50
2019-01-21T09:38:34.395Z,50
2019-01-21T09:39:35.803Z,50
2019-01-21T09:40:37.196Z,50
2019-01-21T09:41:38.716Z,50
2019-01-21T09:42:40.159Z,50
2019-01-21T09:43:41.905Z,50
2019-01-21T09:44:43.447Z,50
2019-01-21T09:45:44.842Z,50
2019-01-21T09:46:46.235Z,50
2019-01-21T09:47:47.767Z,50
2019-01-21T09:48:49.160Z,55
2019-01-21T09:49:50.858Z,55
2019-01-21T09:50:52.264Z,55
2019-01-21T09:51:53.944Z,55
2019-01-21T09:52:55.336Z,55
2019-01-21T09:53:57.028Z,55
2019-01-21T09:54:58.431Z,55
2019-01-21T09:55:59.909Z,55
2019-01-21T09:57:01.304Z,55
2019-01-21T09:58:02.993Z,55
2019-01-21T09:59:04.465Z,60
2019-01-21T10:00:06.077Z,60
2019-01-21T10:01:07.759Z,65
2019-01-21T10:02:08.962Z,65
2019-01-21T10:03:10.356Z,60
2019-01-21T10:04:12.047Z,65
2019-01-21T10:05:13.439Z,65
2019-01-21T10:06:15.137Z,65
2019-01-21T10:07:16.550Z,65
2019-01-21T10:08:17.933Z,60
2019-01-21T10:09:19.453Z,60
2019-01-21T10:10:20.861Z,60
2019-01-21T10:11:22.247Z,60
2019-01-21T10:12:23.642Z,60
2019-01-21T10:13:25.608Z,65
2019-01-21T10:14:27.003Z,65
2019-01-21T10:15:30.015Z,65
2019-01-21T10:16:30.253Z,65
2019-01-21T10:17:31.648Z,65
2019-01-21T10:18:33.235Z,65
2019-01-21T10:19:34.631Z,70
2019-01-21T10:20:36.029Z,70
2019-01-21T10:21:37.562Z,70
2019-01-21T10:22:38.955Z,85
2019-01-21T10:23:40.786Z,95
2019-01-21T10:24:42.197Z,105
2019-01-21T10:25:43.730Z,95
2019-01-21T10:26:45.129Z,100
2019-01-21T10:27:46.860Z,100
2019-01-21T10:28:48.265Z,95
2019-01-21T10:29:49.902Z,85
2019-01-21T10:30:51.354Z,80
2019-01-21T10:31:59.158Z,75
2019-01-21T10:32:54.346Z,75
2019-01-21T10:33:55.871Z,90
2019-01-21T10:34:57.268Z,95
2019-01-21T10:35:58.953Z,90
2019-01-21T10:37:00.667Z,90
2019-01-21T10:38:02.524Z,105
2019-01-21T10:39:04.097Z,105
2019-01-21T10:40:07.926Z,85
2019-01-21T10:41:06.901Z,70
2019-01-21T10:42:08.420Z,65
2019-01-21T10:43:09.815Z,65
2019-01-21T10:44:11.504Z,65
2019-01-21T10:45:12.965Z,65
2019-01-21T10:46:14.591Z,65
2019-01-21T10:47:15.986Z,65
2019-01-21T10:48:17.388Z,65
2019-01-21T10:49:18.910Z,65
2019-01-21T10:50:20.695Z,65
2019-01-21T10:51:22.089Z,65
2019-01-21T10:52:23.851Z,65
2019-01-21T10:53:25.242Z,65
2019-01-21T10:54:26.638Z,65
2019-01-21T10:55:28.181Z,65
2019-01-21T10:56:29.583Z,65
2019-01-21T10:57:30.979Z,65
2019-01-21T10:58:32.536Z,65
2019-01-21T10:59:33.932Z,65
2019-01-21T11:00:35.572Z,65
2019-01-21T11:01:36.972Z,65
2019-01-21T11:02:38.657Z,65
2019-01-21T11:03:40.078Z,65
2019-01-21T11:04:41.745Z,65
2019-01-21T11:05:43.277Z,65
2019-01-21T11:06:44.834Z,65
2019-01-21T11:07:46.221Z,65
2019-01-21T11:08:47.722Z,65
2019-01-21T11:09:49.357Z,65
2019-01-21T11:10:50.771Z,65
2019-01-21T11:11:54.095Z,65
2019-01-21T11:12:53.680Z,65
2019-01-21T11:13:55.071Z,65
2019-01-21T11:14:56.764Z,65
2019-01-21T11:15:58.157Z,65
2019-01-21T11:16:59.849Z,60
2019-01-21T11:18:01.243Z,60
2019-01-21T11:19:02.962Z,60
2019-01-21T11:20:04.433Z,60
2019-01-21T11:21:06.196Z,60
2019-01-21T11:22:07.593Z,60
2019-01-21T11:23:08.987Z,60
2019-01-21T11:24:10.543Z,60
2019-01-21T11:25:11.940Z,60
2019-01-21T11:26:13.339Z,60
2019-01-21T11:27:14.875Z,60
2019-01-21T11:28:16.644Z,60
2019-01-21T11:29:18.148Z,60
2019-01-21T11:30:19.934Z,60
2019-01-21T11:31:23.652Z,60
2019-01-21T11:32:22.803Z,60
2019-01-21T11:33:24.203Z,60
2019-01-21T11:34:25.796Z,60
2019-01-21T11:35:27.181Z,60
2019-01-21T11:36:28.573Z,60
2019-01-21T11:37:30.092Z,60
2019-01-21T11:38:31.485Z,60
2019-01-21T11:39:33.175Z,60
2019-01-21T11:40:34.951Z,60
2019-01-21T11:41:36.523Z,60
2019-01-21T11:42:37.934Z,60
2019-01-21T11:43:39.556Z,60
2019-01-21T11:44:40.953Z,60
2019-01-21T11:45:42.641Z,60
2019-01-21T11:46:44.039Z,60
2019-01-21T11:47:45.721Z,60
2019-01-21T11:48:47.188Z,60
2019-01-21T11:49:48.806Z,60
2019-01-21T11:50:50.236Z,60
2019-01-21T11:51:51.894Z,55
2019-01-21T11:52:53.314Z,55
2019-01-21T11:53:54.717Z,55
2019-01-21T11:54:56.241Z,55
2019-01-21T11:55:57.616Z,55
2019-01-21T11:56:59.016Z,55
2019-01-21T11:58:00.536Z,55
2019-01-21T11:59:01.932Z,55
2019-01-21T12:00:03.335Z,55
2019-01-21T12:01:04.856Z,55
2019-01-21T12:02:06.311Z,55
2019-01-21T12:03:07.709Z,55
2019-01-21T12:04:09.382Z,55
2019-01-21T12:05:10.785Z,55
2019-01-21T12:06:12.469Z,55
2019-01-21T12:07:13.867Z,55
2019-01-21T12:08:15.553Z,55
2019-01-21T12:09:16.957Z,55
2019-01-21T12:10:18.638Z,55
2019-01-21T12:11:20.036Z,55
2019-01-21T12:12:21.724Z,55
2019-01-21T12:13:23.126Z,55
2019-01-21T12:14:24.811Z,55
2019-01-21T12:15:26.170Z,55
2019-01-21T12:16:27.690Z,55
2019-01-21T12:17:29.477Z,55
2019-01-21T12:18:30.910Z,55
2019-01-21T12:19:32.419Z,55
2019-01-21T12:20:33.828Z,55
2019-01-21T12:21:35.225Z,55
2019-01-21T12:22:36.744Z,55
2019-01-21T12:23:38.140Z,55
2019-01-21T12:24:39.536Z,55
2019-01-21T12:25:41.065Z,55
2019-01-21T12:26:42.463Z,55
2019-01-21T12:27:43.857Z,55
2019-01-21T12:28:45.386Z,55
2019-01-21T12:29:46.842Z,55
2019-01-21T12:30:48.473Z,55
2019-01-21T12:31:49.875Z,55
2019-01-21T12:32:51.618Z,55
2019-01-21T12:33:53.018Z,55
2019-01-21T12:34:54.436Z,55
2019-01-21T12:35:56.084Z,55
2019-01-21T12:36:57.484Z,55
2019-01-21T12:37:58.884Z,55
2019-01-21T12:39:00.405Z,55
2019-01-21T12:40:01.799Z,55
2019-01-21T12:41:03.492Z,55
2019-01-21T12:42:04.901Z,55
2019-01-21T12:43:06.577Z,55
2019-01-21T12:44:07.980Z,55
2019-01-21T12:45:09.380Z,55
2019-01-21T12:46:10.898Z,55
2019-01-21T12:47:12.298Z,55
2019-01-21T12:48:14.079Z,55
2019-01-21T12:49:15.628Z,55
2019-01-21T12:50:17.024Z,50
2019-01-21T12:51:18.714Z,50
2019-01-21T12:52:20.111Z,50
2019-01-21T12:53:21.804Z,50
2019-01-21T12:54:23.207Z,50
2019-01-21T12:55:24.886Z,50
2019-01-21T12:56:26.668Z,50
2019-01-21T12:57:28.176Z,50
2019-01-21T12:58:29.577Z,50
2019-01-21T12:59:31.262Z,50
2019-01-21T13:00:32.659Z,50
2019-01-21T13:01:34.347Z,50
2019-01-21T13:02:35.745Z,50
2019-01-21T13:03:37.434Z,50
2019-01-21T13:04:38.834Z,50
2019-01-21T13:05:40.520Z,50
2019-01-21T13:06:41.870Z,50
2019-01-21T13:07:43.404Z,50
2019-01-21T13:08:44.798Z,50
2019-01-21T13:09:46.486Z,50
2019-01-21T13:10:47.885Z,50
2019-01-21T13:11:49.358Z,50
2019-01-21T13:12:50.761Z,50
2019-01-21T13:13:52.449Z,45
2019-01-21T13:14:53.857Z,45
2019-01-21T13:15:55.534Z,45
2019-01-21T13:16:57.033Z,45
2019-01-21T13:17:58.621Z,45
2019-01-21T13:19:00.061Z,45
2019-01-21T13:20:01.373Z,45
2019-01-21T13:21:02.941Z,45
2019-01-21T13:22:04.340Z,45
2019-01-21T13:23:05.727Z,45
2019-01-21T13:24:07.262Z,45
2019-01-21T13:25:08.661Z,45
2019-01-21T13:26:10.054Z,45
2019-01-21T13:27:11.584Z,45
2019-01-21T13:28:12.982Z,45
2019-01-21T13:29:14.370Z,45
2019-01-21T13:30:15.907Z,45
2019-01-21T13:31:17.307Z,45
2019-01-21T13:32:18.785Z,45
2019-01-21T13:33:20.189Z,45
2019-01-21T13:34:21.586Z,45
2019-01-21T13:35:23.102Z,45
2019-01-21T13:36:24.501Z,45
2019-01-21T13:37:25.893Z,45
2019-01-21T13:38:27.429Z,45
2019-01-21T13:39:28.823Z,45
2019-01-21T13:40:30.309Z,45
2019-01-21T13:41:31.707Z,40
2019-01-21T13:42:33.189Z,40
2019-01-21T13:43:34.580Z,40
2019-01-21T13:44:36.072Z,40
2019-01-21T13:45:37.462Z,40
2019-01-21T13:46:38.952Z,40
2019-01-21T13:47:40.347Z,40
2019-01-21T13:48:42.134Z,40
2019-01-21T13:49:43.683Z,40
2019-01-21T13:50:45.077Z,40
2019-01-21T13:51:46.467Z,40
2019-01-21T13:52:49.030Z,40
2019-01-21T13:53:50.423Z,40
2019-01-21T13:54:51.820Z,40
2019-01-21T13:55:53.350Z,40
2019-01-21T13:56:54.837Z,40
2019-01-21T13:57:56.242Z,40
2019-01-21T13:58:57.643Z,40
2019-01-21T13:59:59.031Z,40
2019-01-21T14:01:00.557Z,40
2019-01-21T14:02:01.967Z,40
2019-01-21T14:03:03.360Z,40
2019-01-21T14:04:04.873Z,40
2019-01-21T14:05:06.290Z,35
2019-01-21T14:06:07.685Z,35
2019-01-21T14:07:09.197Z,35
2019-01-21T14:08:10.583Z,35
2019-01-21T14:09:11.985Z,35
2019-01-21T14:10:13.515Z,35
2019-01-21T14:11:14.935Z,35
2019-01-21T14:12:16.328Z,35
2019-01-21T14:13:17.841Z,35
2019-01-21T14:14:19.239Z,35
2019-01-21T14:15:20.631Z,35
2019-01-21T14:16:22.159Z,35
2019-01-21T14:17:23.554Z,35
2019-01-21T14:18:24.951Z,35
2019-01-21T14:19:26.477Z,35
2019-01-21T14:20:27.871Z,35
2019-01-21T14:21:29.267Z,35
2019-01-21T14:22:30.800Z,35
2019-01-21T14:23:32.198Z,35
2019-01-21T14:24:33.593Z,35
2019-01-21T14:25:35.124Z,30
2019-01-21T14:26:36.543Z,30
2019-01-21T14:27:38.031Z,30
2019-01-21T14:28:39.397Z,30
2019-01-21T14:29:40.886Z,30
2019-01-21T14:30:42.279Z,30
2019-01-21T14:31:44.057Z,30
2019-01-21T14:32:45.614Z,30
2019-01-21T14:33:47.389Z,30
2019-01-21T14:34:48.779Z,30
2019-01-21T14:35:50.348Z,30
2019-01-21T14:36:51.753Z,25
2019-01-21T14:37:53.150Z,25
2019-01-21T14:38:55.453Z,25
2019-01-21T14:39:56.852Z,25
2019-01-21T14:40:58.242Z,25
2019-01-21T14:41:59.745Z,25
2019-01-21T14:43:01.143Z,25
2019-01-21T14:44:02.535Z,25
2019-01-21T14:45:04.134Z,25
2019-01-21T14:46:05.527Z,20
2019-01-21T14:47:07.017Z,20
2019-01-21T14:48:08.461Z,20
2019-01-21T14:49:10.157Z,20
2019-01-21T14:50:11.506Z,20
2019-01-21T14:51:12.913Z,20
2019-01-21T14:52:14.425Z,20
2019-01-21T14:53:15.841Z,20